sensor_id;sensor_type;location;lat;lon;timestamp;temperature;humidity
39099;DHT22;24844;52.380;7.018;2023-12-04T00:02:14;0.50;99.90
39099;DHT22;24844;52.380;7.018;2023-12-04T00:04:40;0.50;99.90
39099;DHT22;24844;52.380;7.018;2023-12-04T00:07:05;0.40;99.90
39099;DHT22;24844;52.380;7.018;2023-12-04T00:09:31;0.50;99.90
39099;DHT22;24844;52.380;7.018;2023-12-04T00:11:56;0.30;99.90
39099;DHT22;24844;52.380;7.018;2023-12-04T00:14:22;0.40;99.90
39099;DHT22;24844;52.380;7.018;2023-12-04T00:16:48;0.40;99.90
39099;DHT22;24844;52.380;7.018;2023-12-04T00:19:13;0.50;99.90
39099;DHT22;24844;52.380;7.018;2023-12-04T00:21:39;0.50;99.90
39099;DHT22;24844;52.380;7.018;2023-12-04T00:24:04;0.60;99.90
39099;DHT22;24844;52.380;7.018;2023-12-04T00:26:30;0.50;99.90
39099;DHT22;24844;52.380;7.018;2023-12-04T00:28:56;0.50;99.90
39099;DHT22;24844;52.380;7.018;2023-12-04T00:31:21;0.70;99.90
39099;DHT22;24844;52.380;7.018;2023-12-04T00:33:47;0.70;99.90
39099;DHT22;24844;52.380;7.018;2023-12-04T00:36:13;0.50;99.90
39099;DHT22;24844;52.380;7.018;2023-12-04T00:38:39;0.60;99.90
39099;DHT22;24844;52.380;7.018;2023-12-04T00:41:05;0.40;99.90
39099;DHT22;24844;52.380;7.018;2023-12-04T00:43:30;0.40;99.90
39099;DHT22;24844;52.380;7.018;2023-12-04T00:45:56;0.60;99.90
39099;DHT22;24844;52.380;7.018;2023-12-04T00:48:22;0.50;99.90
39099;DHT22;24844;52.380;7.018;2023-12-04T00:50:47;0.60;99.90
39099;DHT22;24844;52.380;7.018;2023-12-04T00:53:13;0.40;99.90
39099;DHT22;24844;52.380;7.018;2023-12-04T00:55:38;0.30;99.90
39099;DHT22;24844;52.380;7.018;2023-12-04T00:58:04;0.60;99.90
39099;DHT22;24844;52.380;7.018;2023-12-04T01:00:30;0.60;99.90
39099;DHT22;24844;52.380;7.018;2023-12-04T01:02:55;0.70;99.90
39099;DHT22;24844;52.380;7.018;2023-12-04T01:05:21;0.70;99.90
39099;DHT22;24844;52.380;7.018;2023-12-04T01:07:46;0.60;99.90
39099;DHT22;24844;52.380;7.018;2023-12-04T01:10:12;0.60;99.90
39099;DHT22;24844;52.380;7.018;2023-12-04T01:12:38;0.60;99.90
39099;DHT22;24844;52.380;7.018;2023-12-04T01:15:03;0.70;99.90
39099;DHT22;24844;52.380;7.018;2023-12-04T01:17:29;0.50;99.90
39099;DHT22;24844;52.380;7.018;2023-12-04T01:19:55;0.70;99.90
39099;DHT22;24844;52.380;7.018;2023-12-04T01:22:20;0.70;99.90
39099;DHT22;24844;52.380;7.018;2023-12-04T01:24:46;0.80;99.90
39099;DHT22;24844;52.380;7.018;2023-12-04T01:27:12;0.50;99.90
39099;DHT22;24844;52.380;7.018;2023-12-04T01:29:38;0.60;99.90
39099;DHT22;24844;52.380;7.018;2023-12-04T01:32:04;0.80;99.90
39099;DHT22;24844;52.380;7.018;2023-12-04T01:34:30;0.60;99.90
39099;DHT22;24844;52.380;7.018;2023-12-04T01:36:55;0.50;99.90
39099;DHT22;24844;52.380;7.018;2023-12-04T01:39:21;0.70;99.90
39099;DHT22;24844;52.380;7.018;2023-12-04T01:41:47;0.60;99.90
39099;DHT22;24844;52.380;7.018;2023-12-04T01:44:12;0.60;99.90
39099;DHT22;24844;52.380;7.018;2023-12-04T01:46:38;0.60;99.90
39099;DHT22;24844;52.380;7.018;2023-12-04T01:49:04;0.40;99.90
39099;DHT22;24844;52.380;7.018;2023-12-04T01:51:30;0.70;99.90
39099;DHT22;24844;52.380;7.018;2023-12-04T01:53:59;0.70;99.90
39099;DHT22;24844;52.380;7.018;2023-12-04T01:56:25;0.40;99.90
39099;DHT22;24844;52.380;7.018;2023-12-04T01:58:51;0.80;99.90
39099;DHT22;24844;52.380;7.018;2023-12-04T02:01:18;0.50;99.90
39099;DHT22;24844;52.380;7.018;2023-12-04T02:03:45;0.70;99.90
39099;DHT22;24844;52.380;7.018;2023-12-04T02:06:12;0.70;99.90
39099;DHT22;24844;52.380;7.018;2023-12-04T02:08:42;0.80;99.90
39099;DHT22;24844;52.380;7.018;2023-12-04T02:11:08;0.70;99.90
39099;DHT22;24844;52.380;7.018;2023-12-04T02:13:33;0.70;99.90
39099;DHT22;24844;52.380;7.018;2023-12-04T02:16:03;0.60;99.90
39099;DHT22;24844;52.380;7.018;2023-12-04T02:18:32;0.80;99.90
39099;DHT22;24844;52.380;7.018;2023-12-04T02:20:58;0.70;99.90
39099;DHT22;24844;52.380;7.018;2023-12-04T02:23:25;0.60;99.90
39099;DHT22;24844;52.380;7.018;2023-12-04T02:25:54;0.70;99.90
39099;DHT22;24844;52.380;7.018;2023-12-04T02:28:25;0.70;99.90
39099;DHT22;24844;52.380;7.018;2023-12-04T02:30:52;0.70;99.90
39099;DHT22;24844;52.380;7.018;2023-12-04T02:33:19;0.70;99.90
39099;DHT22;24844;52.380;7.018;2023-12-04T02:35:47;0.70;99.90
39099;DHT22;24844;52.380;7.018;2023-12-04T02:38:13;0.70;99.90
39099;DHT22;24844;52.380;7.018;2023-12-04T02:40:39;0.80;99.90
39099;DHT22;24844;52.380;7.018;2023-12-04T02:43:05;0.70;99.90
39099;DHT22;24844;52.380;7.018;2023-12-04T02:45:31;0.90;99.90
39099;DHT22;24844;52.380;7.018;2023-12-04T02:47:56;0.70;99.90
39099;DHT22;24844;52.380;7.018;2023-12-04T02:50:22;0.80;99.90
39099;DHT22;24844;52.380;7.018;2023-12-04T02:52:48;0.70;99.90
39099;DHT22;24844;52.380;7.018;2023-12-04T02:55:13;0.70;99.90
39099;DHT22;24844;52.380;7.018;2023-12-04T02:57:39;0.90;99.90
39099;DHT22;24844;52.380;7.018;2023-12-04T03:00:05;0.70;99.90
39099;DHT22;24844;52.380;7.018;2023-12-04T03:02:31;0.90;99.90
39099;DHT22;24844;52.380;7.018;2023-12-04T03:04:57;0.70;99.90
39099;DHT22;24844;52.380;7.018;2023-12-04T03:07:22;0.80;99.90
39099;DHT22;24844;52.380;7.018;2023-12-04T03:09:49;0.90;99.90
39099;DHT22;24844;52.380;7.018;2023-12-04T03:12:16;0.60;99.90
39099;DHT22;24844;52.380;7.018;2023-12-04T03:14:42;0.90;99.90
39099;DHT22;24844;52.380;7.018;2023-12-04T03:17:07;0.60;99.90
39099;DHT22;24844;52.380;7.018;2023-12-04T03:19:33;0.70;99.90
39099;DHT22;24844;52.380;7.018;2023-12-04T03:22:01;0.70;99.90
39099;DHT22;24844;52.380;7.018;2023-12-04T03:24:26;0.70;99.90
39099;DHT22;24844;52.380;7.018;2023-12-04T03:26:52;0.60;99.90
39099;DHT22;24844;52.380;7.018;2023-12-04T03:29:18;0.60;99.90
39099;DHT22;24844;52.380;7.018;2023-12-04T03:31:43;0.60;99.90
39099;DHT22;24844;52.380;7.018;2023-12-04T03:34:09;0.80;99.90
39099;DHT22;24844;52.380;7.018;2023-12-04T03:36:34;0.70;99.90
39099;DHT22;24844;52.380;7.018;2023-12-04T03:39:00;0.70;99.90
39099;DHT22;24844;52.380;7.018;2023-12-04T03:41:26;0.80;99.90
39099;DHT22;24844;52.380;7.018;2023-12-04T03:43:51;0.70;99.90
39099;DHT22;24844;52.380;7.018;2023-12-04T03:46:17;0.70;99.90
39099;DHT22;24844;52.380;7.018;2023-12-04T03:48:42;0.60;99.90
39099;DHT22;24844;52.380;7.018;2023-12-04T03:51:08;0.80;99.90
39099;DHT22;24844;52.380;7.018;2023-12-04T03:53:34;0.60;99.90
39099;DHT22;24844;52.380;7.018;2023-12-04T03:55:59;0.70;99.90
39099;DHT22;24844;52.380;7.018;2023-12-04T03:58:25;0.80;99.90
39099;DHT22;24844;52.380;7.018;2023-12-04T04:00:50;0.80;99.90
39099;DHT22;24844;52.380;7.018;2023-12-04T04:03:16;0.90;99.90
39099;DHT22;24844;52.380;7.018;2023-12-04T04:05:42;0.70;99.90
39099;DHT22;24844;52.380;7.018;2023-12-04T04:08:07;0.60;99.90
39099;DHT22;24844;52.380;7.018;2023-12-04T04:10:33;0.70;99.90
39099;DHT22;24844;52.380;7.018;2023-12-04T04:12:59;0.80;99.90
39099;DHT22;24844;52.380;7.018;2023-12-04T04:15:26;0.60;99.90
39099;DHT22;24844;52.380;7.018;2023-12-04T04:17:52;0.70;99.90
39099;DHT22;24844;52.380;7.018;2023-12-04T04:20:18;0.60;99.90
39099;DHT22;24844;52.380;7.018;2023-12-04T04:22:43;0.70;99.90
39099;DHT22;24844;52.380;7.018;2023-12-04T04:25:09;0.80;99.90
39099;DHT22;24844;52.380;7.018;2023-12-04T04:27:35;0.80;99.90
39099;DHT22;24844;52.380;7.018;2023-12-04T04:30:02;0.70;99.90
39099;DHT22;24844;52.380;7.018;2023-12-04T04:32:27;0.80;99.90
39099;DHT22;24844;52.380;7.018;2023-12-04T04:34:53;0.70;99.90
39099;DHT22;24844;52.380;7.018;2023-12-04T04:37:19;0.80;99.90
39099;DHT22;24844;52.380;7.018;2023-12-04T04:39:45;0.70;99.90
39099;DHT22;24844;52.380;7.018;2023-12-04T04:42:11;0.80;99.90
39099;DHT22;24844;52.380;7.018;2023-12-04T04:44:37;0.70;99.90
39099;DHT22;24844;52.380;7.018;2023-12-04T04:47:02;0.80;99.90
39099;DHT22;24844;52.380;7.018;2023-12-04T04:49:28;0.70;99.90
39099;DHT22;24844;52.380;7.018;2023-12-04T04:51:54;0.80;99.90
39099;DHT22;24844;52.380;7.018;2023-12-04T04:54:19;0.70;99.90
39099;DHT22;24844;52.380;7.018;2023-12-04T04:56:45;0.70;99.90
39099;DHT22;24844;52.380;7.018;2023-12-04T04:59:10;0.80;99.90
39099;DHT22;24844;52.380;7.018;2023-12-04T05:01:36;0.70;99.90
39099;DHT22;24844;52.380;7.018;2023-12-04T05:04:02;0.80;99.90
39099;DHT22;24844;52.380;7.018;2023-12-04T05:06:28;0.60;99.90
39099;DHT22;24844;52.380;7.018;2023-12-04T05:08:54;0.70;99.90
39099;DHT22;24844;52.380;7.018;2023-12-04T05:11:19;0.80;99.90
39099;DHT22;24844;52.380;7.018;2023-12-04T05:13:45;0.80;99.90
39099;DHT22;24844;52.380;7.018;2023-12-04T05:16:11;0.70;99.90
39099;DHT22;24844;52.380;7.018;2023-12-04T05:18:38;0.80;99.90
39099;DHT22;24844;52.380;7.018;2023-12-04T05:21:10;0.70;99.90
39099;DHT22;24844;52.380;7.018;2023-12-04T05:23:39;0.70;99.90
39099;DHT22;24844;52.380;7.018;2023-12-04T05:26:06;0.70;99.90
39099;DHT22;24844;52.380;7.018;2023-12-04T05:28:32;0.70;99.90
39099;DHT22;24844;52.380;7.018;2023-12-04T05:30:58;0.80;99.90
39099;DHT22;24844;52.380;7.018;2023-12-04T05:33:23;0.70;99.90
39099;DHT22;24844;52.380;7.018;2023-12-04T05:35:49;0.70;99.90
39099;DHT22;24844;52.380;7.018;2023-12-04T05:38:17;0.60;99.90
39099;DHT22;24844;52.380;7.018;2023-12-04T05:40:43;0.70;99.90
39099;DHT22;24844;52.380;7.018;2023-12-04T05:43:08;0.80;99.90
39099;DHT22;24844;52.380;7.018;2023-12-04T05:45:34;0.90;99.90
39099;DHT22;24844;52.380;7.018;2023-12-04T05:47:59;0.70;99.90
39099;DHT22;24844;52.380;7.018;2023-12-04T05:50:25;1.00;99.90
39099;DHT22;24844;52.380;7.018;2023-12-04T05:52:51;0.80;99.90
39099;DHT22;24844;52.380;7.018;2023-12-04T05:55:16;1.00;99.90
39099;DHT22;24844;52.380;7.018;2023-12-04T05:57:44;1.00;99.90
39099;DHT22;24844;52.380;7.018;2023-12-04T06:00:10;0.90;99.90
39099;DHT22;24844;52.380;7.018;2023-12-04T06:02:42;0.70;99.90
39099;DHT22;24844;52.380;7.018;2023-12-04T06:05:08;0.90;99.90
39099;DHT22;24844;52.380;7.018;2023-12-04T06:07:35;0.90;99.90
39099;DHT22;24844;52.380;7.018;2023-12-04T06:10:01;0.90;99.90
39099;DHT22;24844;52.380;7.018;2023-12-04T06:12:27;0.90;99.90
39099;DHT22;24844;52.380;7.018;2023-12-04T06:14:52;1.00;99.90
39099;DHT22;24844;52.380;7.018;2023-12-04T06:17:18;1.00;99.90
39099;DHT22;24844;52.380;7.018;2023-12-04T06:19:45;1.00;99.90
39099;DHT22;24844;52.380;7.018;2023-12-04T06:22:11;1.00;99.90
39099;DHT22;24844;52.380;7.018;2023-12-04T06:24:36;1.00;99.90
39099;DHT22;24844;52.380;7.018;2023-12-04T06:27:02;0.90;99.90
39099;DHT22;24844;52.380;7.018;2023-12-04T06:29:30;0.90;99.90
39099;DHT22;24844;52.380;7.018;2023-12-04T06:31:56;0.80;99.90
39099;DHT22;24844;52.380;7.018;2023-12-04T06:34:22;0.90;99.90
39099;DHT22;24844;52.380;7.018;2023-12-04T06:36:48;0.80;99.90
39099;DHT22;24844;52.380;7.018;2023-12-04T06:39:16;0.80;99.90
39099;DHT22;24844;52.380;7.018;2023-12-04T06:41:42;0.90;99.90
39099;DHT22;24844;52.380;7.018;2023-12-04T06:44:09;1.00;99.90
39099;DHT22;24844;52.380;7.018;2023-12-04T06:46:38;0.90;99.90
39099;DHT22;24844;52.380;7.018;2023-12-04T06:49:05;0.80;99.90
39099;DHT22;24844;52.380;7.018;2023-12-04T06:51:34;0.80;99.90
39099;DHT22;24844;52.380;7.018;2023-12-04T06:53:59;0.80;99.90
39099;DHT22;24844;52.380;7.018;2023-12-04T06:56:25;0.90;99.90
39099;DHT22;24844;52.380;7.018;2023-12-04T06:58:50;0.90;99.90
39099;DHT22;24844;52.380;7.018;2023-12-04T07:01:16;0.80;99.90
39099;DHT22;24844;52.380;7.018;2023-12-04T07:03:42;0.80;99.90
39099;DHT22;24844;52.380;7.018;2023-12-04T07:06:07;0.80;99.90
39099;DHT22;24844;52.380;7.018;2023-12-04T07:08:33;0.80;99.90
39099;DHT22;24844;52.380;7.018;2023-12-04T07:11:00;0.90;99.90
39099;DHT22;24844;52.380;7.018;2023-12-04T07:13:26;0.90;99.90
39099;DHT22;24844;52.380;7.018;2023-12-04T07:15:51;0.90;99.90
39099;DHT22;24844;52.380;7.018;2023-12-04T07:18:17;0.90;99.90
39099;DHT22;24844;52.380;7.018;2023-12-04T07:20:43;0.90;99.90
39099;DHT22;24844;52.380;7.018;2023-12-04T07:23:08;0.90;99.90
39099;DHT22;24844;52.380;7.018;2023-12-04T07:25:34;0.90;99.90
39099;DHT22;24844;52.380;7.018;2023-12-04T07:27:59;0.90;99.90
39099;DHT22;24844;52.380;7.018;2023-12-04T07:30:25;0.90;99.90
39099;DHT22;24844;52.380;7.018;2023-12-04T07:32:51;0.90;99.90
39099;DHT22;24844;52.380;7.018;2023-12-04T07:35:17;0.90;99.90
39099;DHT22;24844;52.380;7.018;2023-12-04T07:37:43;0.90;99.90
39099;DHT22;24844;52.380;7.018;2023-12-04T07:40:09;0.90;99.90
39099;DHT22;24844;52.380;7.018;2023-12-04T07:42:36;0.90;99.90
39099;DHT22;24844;52.380;7.018;2023-12-04T07:45:02;1.00;99.90
39099;DHT22;24844;52.380;7.018;2023-12-04T07:47:28;1.00;99.90
39099;DHT22;24844;52.380;7.018;2023-12-04T07:49:53;1.00;99.90
39099;DHT22;24844;52.380;7.018;2023-12-04T07:52:19;1.00;99.90
39099;DHT22;24844;52.380;7.018;2023-12-04T07:54:45;1.00;99.90
39099;DHT22;24844;52.380;7.018;2023-12-04T07:57:10;1.00;99.90
39099;DHT22;24844;52.380;7.018;2023-12-04T07:59:36;1.00;99.90
39099;DHT22;24844;52.380;7.018;2023-12-04T08:02:01;1.00;99.90
39099;DHT22;24844;52.380;7.018;2023-12-04T08:04:27;1.00;99.90
39099;DHT22;24844;52.380;7.018;2023-12-04T08:06:53;1.00;99.90
39099;DHT22;24844;52.380;7.018;2023-12-04T08:09:18;1.10;99.90
39099;DHT22;24844;52.380;7.018;2023-12-04T08:11:44;1.10;99.90
39099;DHT22;24844;52.380;7.018;2023-12-04T08:14:09;1.10;99.90
39099;DHT22;24844;52.380;7.018;2023-12-04T08:16:35;1.10;99.90
39099;DHT22;24844;52.380;7.018;2023-12-04T08:19:00;1.10;99.90
39099;DHT22;24844;52.380;7.018;2023-12-04T08:21:26;1.10;99.90
39099;DHT22;24844;52.380;7.018;2023-12-04T08:23:51;1.20;99.90
39099;DHT22;24844;52.380;7.018;2023-12-04T08:26:24;1.10;99.90
39099;DHT22;24844;52.380;7.018;2023-12-04T08:28:53;1.20;99.90
39099;DHT22;24844;52.380;7.018;2023-12-04T08:31:19;1.10;99.90
39099;DHT22;24844;52.380;7.018;2023-12-04T08:33:44;1.10;99.90
39099;DHT22;24844;52.380;7.018;2023-12-04T08:36:11;1.20;99.90
39099;DHT22;24844;52.380;7.018;2023-12-04T08:38:37;1.20;99.90
39099;DHT22;24844;52.380;7.018;2023-12-04T08:41:04;1.20;99.90
39099;DHT22;24844;52.380;7.018;2023-12-04T08:43:30;1.20;99.90
39099;DHT22;24844;52.380;7.018;2023-12-04T08:45:56;1.20;99.90
39099;DHT22;24844;52.380;7.018;2023-12-04T08:48:21;1.20;99.90
39099;DHT22;24844;52.380;7.018;2023-12-04T08:50:47;1.30;99.90
39099;DHT22;24844;52.380;7.018;2023-12-04T08:53:13;1.30;99.90
39099;DHT22;24844;52.380;7.018;2023-12-04T08:55:39;1.30;99.90
39099;DHT22;24844;52.380;7.018;2023-12-04T08:58:05;1.30;99.90
39099;DHT22;24844;52.380;7.018;2023-12-04T09:00:31;1.30;99.90
39099;DHT22;24844;52.380;7.018;2023-12-04T09:02:57;1.30;99.90
39099;DHT22;24844;52.380;7.018;2023-12-04T09:05:23;1.30;99.90
39099;DHT22;24844;52.380;7.018;2023-12-04T09:07:48;1.30;99.90
39099;DHT22;24844;52.380;7.018;2023-12-04T09:10:14;1.30;99.90
39099;DHT22;24844;52.380;7.018;2023-12-04T09:12:40;1.40;99.90
39099;DHT22;24844;52.380;7.018;2023-12-04T09:15:06;1.40;99.90
39099;DHT22;24844;52.380;7.018;2023-12-04T09:17:32;1.30;99.90
39099;DHT22;24844;52.380;7.018;2023-12-04T09:19:58;1.40;99.90
39099;DHT22;24844;52.380;7.018;2023-12-04T09:22:24;1.40;99.90
39099;DHT22;24844;52.380;7.018;2023-12-04T09:24:49;1.30;99.90
39099;DHT22;24844;52.380;7.018;2023-12-04T09:27:15;1.40;99.90
39099;DHT22;24844;52.380;7.018;2023-12-04T09:29:42;1.40;99.90
39099;DHT22;24844;52.380;7.018;2023-12-04T09:32:08;1.40;99.90
39099;DHT22;24844;52.380;7.018;2023-12-04T09:34:35;1.40;99.90
39099;DHT22;24844;52.380;7.018;2023-12-04T09:37:00;1.40;99.90
39099;DHT22;24844;52.380;7.018;2023-12-04T09:39:26;1.40;99.90
39099;DHT22;24844;52.380;7.018;2023-12-04T09:41:52;1.50;99.90
39099;DHT22;24844;52.380;7.018;2023-12-04T09:44:19;1.40;99.90
39099;DHT22;24844;52.380;7.018;2023-12-04T09:46:45;1.50;99.90
39099;DHT22;24844;52.380;7.018;2023-12-04T09:49:12;1.50;99.90
39099;DHT22;24844;52.380;7.018;2023-12-04T09:51:38;1.50;99.90
39099;DHT22;24844;52.380;7.018;2023-12-04T09:54:04;1.50;99.90
39099;DHT22;24844;52.380;7.018;2023-12-04T09:56:32;1.60;99.90
39099;DHT22;24844;52.380;7.018;2023-12-04T09:58:59;1.60;99.90
39099;DHT22;24844;52.380;7.018;2023-12-04T10:01:27;1.50;99.90
39099;DHT22;24844;52.380;7.018;2023-12-04T10:03:53;1.60;99.90
39099;DHT22;24844;52.380;7.018;2023-12-04T10:06:22;1.60;99.90
39099;DHT22;24844;52.380;7.018;2023-12-04T10:08:49;1.60;99.90
39099;DHT22;24844;52.380;7.018;2023-12-04T10:11:14;1.70;99.90
39099;DHT22;24844;52.380;7.018;2023-12-04T10:13:43;1.70;99.90
39099;DHT22;24844;52.380;7.018;2023-12-04T10:16:08;1.80;99.90
39099;DHT22;24844;52.380;7.018;2023-12-04T10:18:34;1.70;99.90
39099;DHT22;24844;52.380;7.018;2023-12-04T10:21:00;1.80;99.90
39099;DHT22;24844;52.380;7.018;2023-12-04T10:23:44;2.00;99.90
39099;DHT22;24844;52.380;7.018;2023-12-04T10:26:09;1.80;99.90
39099;DHT22;24844;52.380;7.018;2023-12-04T10:28:35;1.90;99.90
39099;DHT22;24844;52.380;7.018;2023-12-04T10:31:01;1.80;99.90
39099;DHT22;24844;52.380;7.018;2023-12-04T10:33:29;2.00;99.90
39099;DHT22;24844;52.380;7.018;2023-12-04T10:35:55;2.00;99.90
39099;DHT22;24844;52.380;7.018;2023-12-04T10:38:23;2.00;99.90
39099;DHT22;24844;52.380;7.018;2023-12-04T10:40:49;1.90;99.90
39099;DHT22;24844;52.380;7.018;2023-12-04T10:43:19;2.00;99.90
39099;DHT22;24844;52.380;7.018;2023-12-04T10:45:46;1.90;99.90
39099;DHT22;24844;52.380;7.018;2023-12-04T10:48:14;2.00;99.90
39099;DHT22;24844;52.380;7.018;2023-12-04T10:50:50;2.00;99.90
39099;DHT22;24844;52.380;7.018;2023-12-04T10:53:16;2.00;99.90
39099;DHT22;24844;52.380;7.018;2023-12-04T10:55:43;2.00;99.90
39099;DHT22;24844;52.380;7.018;2023-12-04T10:58:14;2.10;99.90
39099;DHT22;24844;52.380;7.018;2023-12-04T11:00:48;2.10;99.90
39099;DHT22;24844;52.380;7.018;2023-12-04T11:03:19;2.10;99.90
39099;DHT22;24844;52.380;7.018;2023-12-04T11:05:51;2.10;99.90
39099;DHT22;24844;52.380;7.018;2023-12-04T11:08:19;2.10;99.90
39099;DHT22;24844;52.380;7.018;2023-12-04T11:10:50;2.10;99.90
39099;DHT22;24844;52.380;7.018;2023-12-04T11:13:35;2.10;99.90
39099;DHT22;24844;52.380;7.018;2023-12-04T11:16:22;2.20;99.90
39099;DHT22;24844;52.380;7.018;2023-12-04T11:21:47;2.10;99.90
39099;DHT22;24844;52.380;7.018;2023-12-04T11:24:15;2.10;99.90
39099;DHT22;24844;52.380;7.018;2023-12-04T11:26:41;2.20;99.90
39099;DHT22;24844;52.380;7.018;2023-12-04T11:29:09;2.10;99.90
39099;DHT22;24844;52.380;7.018;2023-12-04T11:31:36;2.10;99.90
39099;DHT22;24844;52.380;7.018;2023-12-04T11:34:02;2.10;99.90
39099;DHT22;24844;52.380;7.018;2023-12-04T11:36:29;2.10;99.90
39099;DHT22;24844;52.380;7.018;2023-12-04T11:38:54;2.00;99.90
39099;DHT22;24844;52.380;7.018;2023-12-04T11:41:23;2.00;99.90
39099;DHT22;24844;52.380;7.018;2023-12-04T11:43:50;1.80;99.90
39099;DHT22;24844;52.380;7.018;2023-12-04T11:46:24;1.60;99.90
39099;DHT22;24844;52.380;7.018;2023-12-04T11:48:54;1.50;99.90
39099;DHT22;24844;52.380;7.018;2023-12-04T11:54:07;1.40;99.90
39099;DHT22;24844;52.380;7.018;2023-12-04T11:56:33;1.30;99.90
39099;DHT22;24844;52.380;7.018;2023-12-04T11:59:06;1.00;99.90
39099;DHT22;24844;52.380;7.018;2023-12-04T12:01:39;1.40;99.90
39099;DHT22;24844;52.380;7.018;2023-12-04T12:04:07;1.20;99.90
39099;DHT22;24844;52.380;7.018;2023-12-04T12:06:33;1.20;99.90
39099;DHT22;24844;52.380;7.018;2023-12-04T12:08:59;1.10;99.90
39099;DHT22;24844;52.380;7.018;2023-12-04T12:11:25;1.30;99.90
39099;DHT22;24844;52.380;7.018;2023-12-04T12:13:53;1.40;99.90
39099;DHT22;24844;52.380;7.018;2023-12-04T12:16:18;1.30;99.90
39099;DHT22;24844;52.380;7.018;2023-12-04T12:18:44;1.20;99.90
39099;DHT22;24844;52.380;7.018;2023-12-04T12:21:10;1.00;99.90
39099;DHT22;24844;52.380;7.018;2023-12-04T12:23:36;1.20;99.90
39099;DHT22;24844;52.380;7.018;2023-12-04T12:26:02;1.40;99.90
39099;DHT22;24844;52.380;7.018;2023-12-04T12:28:28;1.30;99.90
39099;DHT22;24844;52.380;7.018;2023-12-04T12:30:55;1.50;99.90
39099;DHT22;24844;52.380;7.018;2023-12-04T12:33:20;1.50;99.90
39099;DHT22;24844;52.380;7.018;2023-12-04T12:35:48;1.10;99.90
39099;DHT22;24844;52.380;7.018;2023-12-04T12:38:14;1.50;99.90
39099;DHT22;24844;52.380;7.018;2023-12-04T12:40:40;1.40;99.90
39099;DHT22;24844;52.380;7.018;2023-12-04T12:43:06;1.40;99.90
39099;DHT22;24844;52.380;7.018;2023-12-04T12:45:42;1.50;99.90
39099;DHT22;24844;52.380;7.018;2023-12-04T12:48:15;1.50;99.90
39099;DHT22;24844;52.380;7.018;2023-12-04T12:50:48;1.30;99.90
39099;DHT22;24844;52.380;7.018;2023-12-04T12:53:14;1.50;99.90
39099;DHT22;24844;52.380;7.018;2023-12-04T12:55:42;1.50;99.90
39099;DHT22;24844;52.380;7.018;2023-12-04T12:58:11;1.70;99.90
39099;DHT22;24844;52.380;7.018;2023-12-04T13:00:42;1.40;99.90
39099;DHT22;24844;52.380;7.018;2023-12-04T13:03:16;1.50;99.90
39099;DHT22;24844;52.380;7.018;2023-12-04T13:05:41;1.50;99.90
39099;DHT22;24844;52.380;7.018;2023-12-04T13:08:07;1.70;99.90
39099;DHT22;24844;52.380;7.018;2023-12-04T13:10:32;1.60;99.90
39099;DHT22;24844;52.380;7.018;2023-12-04T13:12:58;1.50;99.90
39099;DHT22;24844;52.380;7.018;2023-12-04T13:15:28;1.60;99.90
39099;DHT22;24844;52.380;7.018;2023-12-04T13:17:54;1.50;99.90
39099;DHT22;24844;52.380;7.018;2023-12-04T13:20:19;1.50;99.90
39099;DHT22;24844;52.380;7.018;2023-12-04T13:22:45;1.50;99.90
39099;DHT22;24844;52.380;7.018;2023-12-04T13:25:11;1.70;99.90
39099;DHT22;24844;52.380;7.018;2023-12-04T13:27:39;1.50;99.90
39099;DHT22;24844;52.380;7.018;2023-12-04T13:30:05;1.50;99.90
39099;DHT22;24844;52.380;7.018;2023-12-04T13:32:31;1.40;99.90
39099;DHT22;24844;52.380;7.018;2023-12-04T13:34:59;1.40;99.90
39099;DHT22;24844;52.380;7.018;2023-12-04T13:37:24;1.50;99.90
39099;DHT22;24844;52.380;7.018;2023-12-04T13:39:52;1.60;99.90
39099;DHT22;24844;52.380;7.018;2023-12-04T13:42:24;1.60;99.90
39099;DHT22;24844;52.380;7.018;2023-12-04T13:45:08;1.60;99.90
39099;DHT22;24844;52.380;7.018;2023-12-04T13:47:35;1.50;99.90
39099;DHT22;24844;52.380;7.018;2023-12-04T13:50:01;1.60;99.90
39099;DHT22;24844;52.380;7.018;2023-12-04T13:52:27;1.40;99.90
39099;DHT22;24844;52.380;7.018;2023-12-04T13:54:58;1.30;99.90
39099;DHT22;24844;52.380;7.018;2023-12-04T13:57:24;1.60;99.90
39099;DHT22;24844;52.380;7.018;2023-12-04T13:59:59;1.50;99.90
39099;DHT22;24844;52.380;7.018;2023-12-04T14:02:25;1.40;99.90
39099;DHT22;24844;52.380;7.018;2023-12-04T14:04:50;1.60;99.90
39099;DHT22;24844;52.380;7.018;2023-12-04T14:07:16;1.30;99.90
39099;DHT22;24844;52.380;7.018;2023-12-04T14:09:43;1.50;99.90
39099;DHT22;24844;52.380;7.018;2023-12-04T14:12:10;1.60;99.90
39099;DHT22;24844;52.380;7.018;2023-12-04T14:14:36;1.60;99.90
39099;DHT22;24844;52.380;7.018;2023-12-04T14:17:03;1.40;99.90
39099;DHT22;24844;52.380;7.018;2023-12-04T14:19:30;1.40;99.90
39099;DHT22;24844;52.380;7.018;2023-12-04T14:21:55;1.40;99.90
39099;DHT22;24844;52.380;7.018;2023-12-04T14:24:21;1.50;99.90
39099;DHT22;24844;52.380;7.018;2023-12-04T14:26:48;1.40;99.90
39099;DHT22;24844;52.380;7.018;2023-12-04T14:29:14;1.30;99.90
39099;DHT22;24844;52.380;7.018;2023-12-04T14:31:40;1.50;99.90
39099;DHT22;24844;52.380;7.018;2023-12-04T14:34:06;1.40;99.90
39099;DHT22;24844;52.380;7.018;2023-12-04T14:36:31;1.30;99.90
39099;DHT22;24844;52.380;7.018;2023-12-04T14:38:57;1.40;99.90
39099;DHT22;24844;52.380;7.018;2023-12-04T14:41:23;1.10;99.90
39099;DHT22;24844;52.380;7.018;2023-12-04T14:43:49;1.10;99.90
39099;DHT22;24844;52.380;7.018;2023-12-04T14:46:14;1.30;99.90
39099;DHT22;24844;52.380;7.018;2023-12-04T14:48:40;1.40;99.90
39099;DHT22;24844;52.380;7.018;2023-12-04T14:51:07;1.20;99.90
39099;DHT22;24844;52.380;7.018;2023-12-04T14:53:33;1.20;99.90
39099;DHT22;24844;52.380;7.018;2023-12-04T14:56:35;1.20;99.90
39099;DHT22;24844;52.380;7.018;2023-12-04T14:59:01;1.30;99.90
39099;DHT22;24844;52.380;7.018;2023-12-04T15:01:47;1.50;99.90
39099;DHT22;24844;52.380;7.018;2023-12-04T15:04:32;1.30;99.90
39099;DHT22;24844;52.380;7.018;2023-12-04T15:07:16;1.50;99.90
39099;DHT22;24844;52.380;7.018;2023-12-04T15:10:14;1.20;99.90
39099;DHT22;24844;52.380;7.018;2023-12-04T15:12:59;1.30;99.90
39099;DHT22;24844;52.380;7.018;2023-12-04T15:15:43;1.10;99.90
39099;DHT22;24844;52.380;7.018;2023-12-04T15:18:27;1.40;99.90
39099;DHT22;24844;52.380;7.018;2023-12-04T15:20:55;1.10;99.90
39099;DHT22;24844;52.380;7.018;2023-12-04T15:23:21;1.10;99.90
39099;DHT22;24844;52.380;7.018;2023-12-04T15:25:46;0.90;99.90
39099;DHT22;24844;52.380;7.018;2023-12-04T15:28:12;1.10;99.90
39099;DHT22;24844;52.380;7.018;2023-12-04T15:30:41;1.20;99.90
39099;DHT22;24844;52.380;7.018;2023-12-04T15:33:07;1.20;99.90
39099;DHT22;24844;52.380;7.018;2023-12-04T15:35:33;1.20;99.90
39099;DHT22;24844;52.380;7.018;2023-12-04T15:37:58;1.20;99.90
39099;DHT22;24844;52.380;7.018;2023-12-04T15:40:24;1.00;99.90
39099;DHT22;24844;52.380;7.018;2023-12-04T15:42:49;1.00;99.90
39099;DHT22;24844;52.380;7.018;2023-12-04T15:45:15;1.00;99.90
39099;DHT22;24844;52.380;7.018;2023-12-04T15:47:40;1.20;99.90
39099;DHT22;24844;52.380;7.018;2023-12-04T15:50:06;1.10;99.90